Pinetown, South Africa
Current Conditions -  °F | °C
As of 7:00 PM on Thursday 27 Nov 2014 (Local Time) from FALE Reporting Station
Broken Clouds Broken Clouds  
Wind Chill: 73°   Ceiling: 1500
Heat Index: 73°   Visibility: 4mi
Dew Point: 68°   Wind: 17mph
Humidity: 83%   Direction: 210°SSW
Pressure: 29.74"   Gusts: NA
Location:  29.76°S, 30.83°E
Report Text: FALE 271700Z 21015KT 6000 BKN015 SCT020CB 23/20 Q1007 TEMPO 4000 TSRA
Loading
Personal Weather Stations






























Interactive Weather Map New forecast layout! Learn more

10-Day Weather Forecast

Advertisements
Track Severe Weather on mobile